createdAt,value
2019-06-15T00:01:54.938Z,10.30
2019-06-15T00:06:58.217Z,12.27
2019-06-15T00:12:00.419Z,10.83
2019-06-15T00:17:03.389Z,14.80
2019-06-15T00:22:06.031Z,10.93
2019-06-15T00:27:08.911Z,10.87
2019-06-15T00:32:12.141Z,12.43
2019-06-15T00:37:15.002Z,12.10
2019-06-15T00:42:17.517Z,11.27
2019-06-15T00:47:20.092Z,13.97
2019-06-15T00:52:22.328Z,14.63
2019-06-15T00:57:25.655Z,16.50
2019-06-15T01:02:28.022Z,11.77
2019-06-15T01:07:30.224Z,14.93
2019-06-15T01:12:32.754Z,14.07
2019-06-15T01:17:35.588Z,14.40
2019-06-15T01:22:38.992Z,16.67
2019-06-15T01:27:42.014Z,15.20
2019-06-15T01:32:44.370Z,11.70
2019-06-15T01:37:46.583Z,15.23
2019-06-15T01:42:49.373Z,11.77
2019-06-15T01:47:51.798Z,12.57
2019-06-15T01:52:54.091Z,17.17
2019-06-15T01:57:56.247Z,11.87
2019-06-15T02:02:58.700Z,14.70
2019-06-15T02:08:01.121Z,24.43
2019-06-15T02:13:05.226Z,13.13
2019-06-15T02:18:07.550Z,12.33
2019-06-15T02:23:09.713Z,12.80
2019-06-15T02:28:11.915Z,15.03
2019-06-15T02:33:14.317Z,14.47
2019-06-15T02:38:16.909Z,15.27
2019-06-15T02:43:19.166Z,13.87
2019-06-15T02:48:21.320Z,16.50
2019-06-15T02:53:23.460Z,14.37
2019-06-15T02:58:26.332Z,15.47
2019-06-15T03:03:29.130Z,15.67
2019-06-15T03:08:32.888Z,12.70
2019-06-15T03:13:35.971Z,15.17
2019-06-15T03:18:38.609Z,15.83
2019-06-15T03:23:40.791Z,15.10
2019-06-15T03:28:44.152Z,17.90
2019-06-15T03:33:46.938Z,16.57
2019-06-15T03:38:50.146Z,15.97
2019-06-15T03:43:52.339Z,23.50
2019-06-15T03:48:55.235Z,15.30
2019-06-15T03:53:57.431Z,17.53
2019-06-15T03:58:59.909Z,21.03
2019-06-15T04:04:02.785Z,17.37
2019-06-15T04:09:06.712Z,25.37
2019-06-15T04:14:09.322Z,21.17
2019-06-15T04:19:11.508Z,18.33
2019-06-15T04:24:14.256Z,18.63
2019-06-15T04:29:17.125Z,16.30
2019-06-15T04:34:19.310Z,21.07
2019-06-15T04:39:22.033Z,15.07
2019-06-15T04:44:24.549Z,16.70
2019-06-15T04:49:27.409Z,18.10
2019-06-15T04:54:30.500Z,19.97
2019-06-15T04:59:32.996Z,22.10
2019-06-15T05:04:35.490Z,19.37
2019-06-15T05:09:38.311Z,16.40
2019-06-15T05:14:40.628Z,22.67
2019-06-15T05:19:43.973Z,15.37
2019-06-15T05:24:46.697Z,15.23
2019-06-15T05:29:49.000Z,15.33
2019-06-15T05:34:51.886Z,16.63
2019-06-15T05:39:54.175Z,15.33
2019-06-15T05:44:57.176Z,15.30
2019-06-15T05:49:59.405Z,15.93
2019-06-15T05:55:02.031Z,14.10
2019-06-15T06:00:06.201Z,25.83
2019-06-15T06:05:09.769Z,17.40
2019-06-15T06:10:12.660Z,18.97
2019-06-15T06:15:16.500Z,16.03
2019-06-15T06:20:18.815Z,15.63
2019-06-15T06:25:21.005Z,17.73
2019-06-15T06:30:23.299Z,14.20
2019-06-15T06:35:25.930Z,13.77
2019-06-15T06:40:28.431Z,18.70
2019-06-15T06:45:31.719Z,18.93
2019-06-15T06:50:34.212Z,19.73
2019-06-15T06:55:36.445Z,15.73
2019-06-15T07:00:39.246Z,17.07
2019-06-15T07:05:42.248Z,22.23
2019-06-15T07:10:44.413Z,19.03
2019-06-15T07:15:46.710Z,14.27
2019-06-15T07:26:54.314Z,15.47
2019-06-15T07:31:56.446Z,15.77
2019-06-15T07:37:01.590Z,15.63
2019-06-15T07:42:03.223Z,16.87
2019-06-15T07:47:05.666Z,16.40
2019-06-15T07:52:08.582Z,15.77
2019-06-15T07:57:11.335Z,15.13
2019-06-15T08:02:13.638Z,16.97
2019-06-15T08:07:16.412Z,15.20
2019-06-15T08:12:20.489Z,16.93
2019-06-15T08:17:22.801Z,15.03
2019-06-15T08:22:25.322Z,17.80
2019-06-15T08:27:27.518Z,17.57
2019-06-15T08:32:30.063Z,13.90
2019-06-15T08:37:32.245Z,15.13
2019-06-15T08:42:35.439Z,17.67
2019-06-15T08:47:37.932Z,19.53
2019-06-15T08:52:40.110Z,26.07
2019-06-15T08:57:44.358Z,15.27
2019-06-15T09:02:47.136Z,17.17
2019-06-15T09:07:49.910Z,16.67
2019-06-15T09:12:53.063Z,14.87
2019-06-15T09:17:55.302Z,17.30
2019-06-15T09:22:57.497Z,16.77
2019-06-15T09:28:00.656Z,19.77
2019-06-15T09:33:03.111Z,21.40
2019-06-15T09:38:05.827Z,17.73
2019-06-15T09:43:08.599Z,18.37
2019-06-15T09:48:11.329Z,21.10
2019-06-15T09:53:13.526Z,16.13
2019-06-15T09:58:15.811Z,20.23
2019-06-15T10:03:18.157Z,19.33
2019-06-15T10:08:20.994Z,16.40
2019-06-15T10:13:23.991Z,17.93
2019-06-15T10:18:26.338Z,20.07
2019-06-15T10:23:29.139Z,17.17
2019-06-15T10:28:31.752Z,18.40
2019-06-15T10:33:34.489Z,22.00
2019-06-15T10:38:37.663Z,18.30
2019-06-15T10:43:40.189Z,19.13
2019-06-15T10:48:42.740Z,24.83
2019-06-15T10:53:45.157Z,20.47
2019-06-15T10:58:47.709Z,24.83
2019-06-15T11:03:50.377Z,21.27
2019-06-15T11:08:53.615Z,17.77
2019-06-15T11:13:56.371Z,23.43
2019-06-15T11:18:59.016Z,22.33
2019-06-15T11:24:01.346Z,20.07
2019-06-15T11:29:03.842Z,20.13
2019-06-15T11:34:06.516Z,26.73
2019-06-15T11:39:09.563Z,22.93
2019-06-15T11:44:12.299Z,21.00
2019-06-15T11:49:15.738Z,25.47
2019-06-15T11:54:18.106Z,22.53
2019-06-15T11:59:20.664Z,23.17
2019-06-15T12:04:23.606Z,20.87
2019-06-15T12:09:26.075Z,19.13
2019-06-15T12:14:28.262Z,19.23
2019-06-15T12:19:30.551Z,24.10
2019-06-15T12:24:33.394Z,20.50
2019-06-15T12:29:36.708Z,16.13
2019-06-15T12:34:39.327Z,21.07
2019-06-15T12:39:42.268Z,22.57
2019-06-15T12:44:45.193Z,21.00
2019-06-15T12:49:47.493Z,19.47
2019-06-15T12:54:51.697Z,17.80
2019-06-15T12:59:53.905Z,14.30
2019-06-15T13:04:56.382Z,12.20
2019-06-15T13:10:00.005Z,16.33
2019-06-15T13:15:02.637Z,13.43
2019-06-15T13:20:05.817Z,16.37
2019-06-15T13:25:09.058Z,17.73
2019-06-15T13:30:19.001Z,21.63
2019-06-15T13:35:21.773Z,15.17
2019-06-15T13:40:24.590Z,16.10
2019-06-15T13:45:26.894Z,17.30
2019-06-15T13:50:29.451Z,20.67
2019-06-15T13:55:31.638Z,14.00
2019-06-15T14:00:33.987Z,12.47
2019-06-15T14:05:37.979Z,12.07
2019-06-15T14:10:40.442Z,12.80
2019-06-15T14:15:42.648Z,10.47
2019-06-15T14:20:45.325Z,10.10
2019-06-15T14:25:47.808Z,10.50
2019-06-15T14:30:50.846Z,11.80
2019-06-15T14:35:53.113Z,11.73
2019-06-15T14:40:55.513Z,9.27
2019-06-15T14:45:59.872Z,11.57
2019-06-15T14:51:02.208Z,14.57
2019-06-15T14:56:06.779Z,8.27
2019-06-15T15:01:09.724Z,8.27
2019-06-15T15:06:12.370Z,11.67
2019-06-15T15:11:17.131Z,10.47
2019-06-15T15:16:20.236Z,18.73
2019-06-15T15:21:22.497Z,16.13
2019-06-15T15:26:26.518Z,16.20
2019-06-15T15:31:28.895Z,15.97
2019-06-15T15:36:31.410Z,10.43
2019-06-15T15:41:33.659Z,10.73
2019-06-15T15:46:36.801Z,9.63
2019-06-15T15:51:39.040Z,11.30
2019-06-15T15:56:42.084Z,15.13
2019-06-15T16:01:46.168Z,12.03
2019-06-15T16:06:49.021Z,10.43
2019-06-15T16:11:51.730Z,14.07
2019-06-15T16:16:55.970Z,9.57
2019-06-15T16:21:58.539Z,10.93
2019-06-15T16:27:01.340Z,12.70
2019-06-15T16:32:06.555Z,10.57
2019-06-15T16:37:08.145Z,12.87
2019-06-15T16:42:10.349Z,9.30
2019-06-15T16:47:13.022Z,9.83
2019-06-15T16:52:16.422Z,10.57
2019-06-15T16:57:19.608Z,11.30
2019-06-15T17:02:22.466Z,8.93
2019-06-15T17:07:26.243Z,7.10
2019-06-15T17:12:28.915Z,7.93
2019-06-15T17:17:31.121Z,5.57
2019-06-15T17:22:35.351Z,7.33
2019-06-15T17:27:37.782Z,7.33
2019-06-15T17:32:40.279Z,8.40
2019-06-15T17:37:42.559Z,6.37
2019-06-15T17:42:44.781Z,9.03
2019-06-15T17:47:47.595Z,11.13
2019-06-15T17:52:50.821Z,6.40
2019-06-15T17:57:53.360Z,8.63
2019-06-15T18:02:56.845Z,8.27
2019-06-15T18:08:01.590Z,10.87
2019-06-15T18:13:06.949Z,12.60
2019-06-15T18:18:09.371Z,10.73
2019-06-15T18:23:11.555Z,7.10
2019-06-15T18:28:13.869Z,5.90
2019-06-15T18:33:16.526Z,6.93
2019-06-15T18:38:19.139Z,4.30
2019-06-15T18:43:21.625Z,5.13
2019-06-15T18:48:26.411Z,8.33
2019-06-15T18:53:28.958Z,4.57
2019-06-15T18:58:31.247Z,4.57
2019-06-15T19:03:33.607Z,6.23
2019-06-15T19:08:36.433Z,6.37
2019-06-15T19:13:38.887Z,5.53
2019-06-15T19:18:41.189Z,7.97
2019-06-15T19:23:43.346Z,4.43
2019-06-15T19:28:46.027Z,7.70
2019-06-15T19:33:48.956Z,6.60
2019-06-15T19:38:52.986Z,6.67
2019-06-15T19:43:57.127Z,8.43
2019-06-15T19:49:00.273Z,7.17
2019-06-15T19:54:02.993Z,8.57
2019-06-15T19:59:06.846Z,8.33
2019-06-15T20:04:10.143Z,7.47
2019-06-15T20:09:12.633Z,10.13
2019-06-15T20:14:16.748Z,7.37
2019-06-15T20:19:20.089Z,12.50
2019-06-15T20:24:22.321Z,7.63
2019-06-15T20:29:26.952Z,9.50
2019-06-15T20:34:29.968Z,7.90
2019-06-15T20:39:32.860Z,12.00
2019-06-15T20:44:36.735Z,6.43
2019-06-15T20:49:39.352Z,13.47
2019-06-15T20:54:41.875Z,11.73
2019-06-15T20:59:47.430Z,10.23
2019-06-15T21:04:50.050Z,6.80
2019-06-15T21:09:52.822Z,6.30
2019-06-15T21:14:56.189Z,6.13
2019-06-15T21:19:58.967Z,11.30
2019-06-15T21:25:01.187Z,3.50
2019-06-15T21:30:06.816Z,4.57
2019-06-15T21:35:10.816Z,6.43
2019-06-15T21:40:18.272Z,6.07
2019-06-15T21:45:19.414Z,3.10
2019-06-15T21:50:22.201Z,2.37
2019-06-15T21:55:26.729Z,2.70
2019-06-15T22:00:51.548Z,2.57
2019-06-15T22:06:02.815Z,3.63
2019-06-15T22:10:59.695Z,3.13
2019-06-15T22:16:01.905Z,2.13
2019-06-15T22:21:06.548Z,6.60
2019-06-15T22:26:08.785Z,3.63
2019-06-15T22:31:11.449Z,2.33
2019-06-15T22:36:22.301Z,1.60
2019-06-15T22:41:18.778Z,3.27
2019-06-15T22:46:20.966Z,2.20
2019-06-15T22:51:23.530Z,1.57
2019-06-15T22:56:26.538Z,2.80
2019-06-15T23:01:28.837Z,3.57
2019-06-15T23:06:37.366Z,1.17
2019-06-15T23:11:35.983Z,2.90
2019-06-15T23:16:38.218Z,1.47
2019-06-15T23:21:41.618Z,5.30
2019-06-15T23:26:46.191Z,1.43
2019-06-15T23:31:48.465Z,1.43
2019-06-15T23:36:57.212Z,1.20
2019-06-15T23:41:58.239Z,1.10
2019-06-15T23:47:02.046Z,2.70
2019-06-15T23:52:06.823Z,0.93
2019-06-15T23:57:08.685Z,2.33
